createdAt,value
2023-04-30T00:27:26.934Z,0
2023-04-30T00:32:36.723Z,0
2023-04-30T00:37:51.942Z,0
2023-04-30T00:43:08.443Z,0
2023-04-30T00:48:27.117Z,0
2023-04-30T00:53:42.238Z,0
2023-04-30T00:58:58.025Z,0
2023-04-30T01:04:14.899Z,0
2023-04-30T01:09:34.238Z,0
2023-04-30T01:14:50.481Z,0
2023-04-30T01:20:07.740Z,0
2023-04-30T01:25:25.212Z,0
2023-04-30T01:30:42.086Z,0
2023-04-30T01:35:58.810Z,0
2023-04-30T01:41:14.891Z,0
2023-04-30T01:46:33.139Z,0
2023-04-30T01:51:48.666Z,0
2023-04-30T01:57:05.050Z,0
2023-04-30T02:02:23.171Z,0
2023-04-30T02:07:40.971Z,0
2023-04-30T02:12:57.561Z,0
2023-04-30T02:18:14.181Z,0
2023-04-30T02:23:29.895Z,0
2023-04-30T02:28:45.576Z,0
2023-04-30T02:34:03.128Z,0
2023-04-30T02:39:19.163Z,0
2023-04-30T02:44:36.787Z,0
2023-04-30T02:49:53.798Z,0
2023-04-30T02:55:10.183Z,0
2023-04-30T03:00:26.059Z,0
2023-04-30T03:05:42.799Z,0
2023-04-30T03:10:59.910Z,0
2023-04-30T03:15:23.112Z,0
2023-04-30T03:20:39.950Z,0
2023-04-30T03:25:56.216Z,0
2023-04-30T03:31:13.392Z,1
2023-04-30T03:36:30.346Z,2
2023-04-30T03:41:46.500Z,5
2023-04-30T03:47:03.561Z,12
2023-04-30T03:52:18.738Z,23
2023-04-30T03:57:35.335Z,40
2023-04-30T04:39:59.556Z,363
2023-04-30T04:45:08.644Z,406
2023-04-30T04:50:26.271Z,451
2023-04-30T04:55:42.711Z,490
2023-04-30T05:01:00.169Z,525
2023-04-30T05:06:15.835Z,555
2023-04-30T05:11:32.704Z,589
2023-04-30T05:16:49.050Z,620
2023-04-30T05:22:06.276Z,651
2023-04-30T05:27:23.753Z,678
2023-04-30T05:32:40.283Z,708
2023-04-30T05:37:56.644Z,739
2023-04-30T05:43:13.176Z,766
2023-04-30T05:48:30.167Z,794
2023-04-30T05:53:47.608Z,817
2023-04-30T05:59:04.098Z,839
2023-04-30T06:04:20.729Z,863
2023-04-30T06:09:36.902Z,882
2023-04-30T06:14:54.244Z,902
2023-04-30T06:20:09.528Z,917
2023-04-30T06:25:26.602Z,938
2023-04-30T06:30:42.478Z,955
2023-04-30T06:35:59.329Z,973
2023-04-30T06:41:15.496Z,978
2023-04-30T06:46:33.227Z,994
2023-04-30T06:51:50.052Z,1004
2023-04-30T06:57:08.356Z,1020
2023-04-30T07:02:25.851Z,1031
2023-04-30T07:07:41.245Z,1050
2023-04-30T07:12:57.119Z,1060
2023-04-30T07:18:14.573Z,1074
2023-04-30T07:23:31.278Z,1089
2023-04-30T07:28:47.923Z,1105
2023-04-30T07:34:05.359Z,1117
2023-04-30T08:16:27.867Z,1210
2023-04-30T08:21:37.522Z,1222
2023-04-30T08:26:55.017Z,1229
2023-04-30T08:32:09.969Z,1230
2023-04-30T08:37:27.312Z,1234
2023-04-30T08:42:44.698Z,1236
2023-04-30T08:48:01.752Z,1242
2023-04-30T08:53:20.468Z,1246
2023-04-30T08:58:37.596Z,1254
2023-04-30T09:03:54.100Z,1267
2023-04-30T09:09:09.834Z,1274
2023-04-30T09:14:25.693Z,1285
2023-04-30T09:19:42.165Z,1283
2023-04-30T09:24:58.901Z,1286
2023-04-30T09:30:15.208Z,1295
2023-04-30T09:35:32.682Z,1292
2023-04-30T09:40:48.571Z,1301
2023-04-30T09:46:04.261Z,1313
2023-04-30T09:51:21.546Z,1321
2023-04-30T09:56:38.137Z,1322
2023-04-30T10:01:54.735Z,1333
2023-04-30T10:07:16.703Z,1335
2023-04-30T10:12:25.611Z,1345
2023-04-30T10:17:42.256Z,1359
2023-04-30T10:23:00.234Z,1357
2023-04-30T10:28:17.022Z,1361
2023-04-30T10:33:34.269Z,1369
2023-04-30T10:38:50.400Z,1387
2023-04-30T10:44:08.065Z,1396
2023-04-30T10:49:26.007Z,1402
2023-04-30T10:54:41.856Z,1410
2023-04-30T10:59:58.478Z,1429
2023-04-30T11:05:16.422Z,1443
2023-04-30T11:10:31.946Z,1472
2023-04-30T11:58:08.193Z,1714
2023-04-30T12:03:18.373Z,1701
2023-04-30T12:08:35.368Z,1725
2023-04-30T12:13:52.170Z,1806
2023-04-30T12:19:08.330Z,1807
2023-04-30T12:24:25.498Z,1946
2023-04-30T13:01:34.638Z,2877
2023-04-30T13:06:44.677Z,1985
2023-04-30T13:12:00.154Z,2892
2023-04-30T13:17:20.685Z,2911
2023-04-30T13:22:36.415Z,3417
2023-04-30T13:27:52.405Z,3381
2023-04-30T13:33:09.208Z,3242
2023-04-30T13:38:24.961Z,3459
2023-04-30T13:43:43.135Z,3817
2023-04-30T13:48:59.600Z,4222
2023-04-30T13:54:16.421Z,4197
2023-04-30T13:59:33.223Z,4707
2023-04-30T14:05:07.247Z,5159
2023-04-30T14:10:08.101Z,4714
2023-04-30T14:15:24.753Z,4753
2023-04-30T14:20:41.517Z,5059
2023-04-30T14:25:57.797Z,5725
2023-04-30T14:31:14.010Z,5798
2023-04-30T14:36:30.434Z,6235
2023-04-30T14:41:47.289Z,6502
2023-04-30T14:47:04.207Z,5877
2023-04-30T14:52:20.655Z,6620
2023-04-30T14:57:37.045Z,6690
2023-04-30T15:02:54.405Z,6663
2023-04-30T15:08:11.283Z,7269
2023-04-30T15:13:26.573Z,6834
2023-04-30T15:18:43.369Z,7114
2023-04-30T15:23:59.433Z,6626
2023-04-30T15:29:15.599Z,6031
2023-04-30T15:34:34.192Z,5675
2023-04-30T15:39:51.503Z,6402
2023-04-30T15:45:07.403Z,6413
2023-04-30T15:50:25.487Z,5739
2023-04-30T16:37:58.604Z,8925
2023-04-30T16:43:08.577Z,7543
2023-04-30T16:48:24.563Z,8164
2023-04-30T16:53:41.934Z,7842
2023-04-30T16:58:59.581Z,8350
2023-04-30T17:04:15.438Z,7981
2023-04-30T17:09:32.591Z,6497
2023-04-30T17:14:48.721Z,3992
2023-04-30T17:20:05.704Z,4983
2023-04-30T17:25:21.683Z,4228
2023-04-30T17:30:38.810Z,5891
2023-04-30T17:35:56.621Z,3984
2023-04-30T17:41:12.878Z,5896
2023-04-30T17:46:29.308Z,6065
2023-04-30T17:51:44.953Z,4055
2023-04-30T17:57:00.892Z,3319
2023-04-30T18:02:17.397Z,2516
2023-04-30T18:07:33.924Z,3599
2023-04-30T18:12:51.470Z,2698
2023-04-30T18:18:08.911Z,3155
2023-04-30T18:23:24.254Z,1767
2023-04-30T18:28:41.144Z,1058
2023-04-30T18:33:58.958Z,744
2023-04-30T18:39:14.726Z,504
2023-04-30T18:44:31.244Z,310
2023-04-30T18:49:48.314Z,167
2023-04-30T18:55:07.449Z,94
2023-04-30T19:00:23.302Z,59
2023-04-30T19:05:40.074Z,37
2023-04-30T19:10:55.525Z,19
2023-04-30T19:16:12.360Z,8
2023-04-30T19:21:27.845Z,3
2023-04-30T19:26:43.991Z,1
2023-04-30T19:32:00.922Z,0
2023-04-30T19:37:17.080Z,0
2023-04-30T20:40:45.044Z,0
2023-04-30T20:45:54.922Z,0
2023-04-30T20:51:10.997Z,0
2023-04-30T20:56:27.459Z,0
2023-04-30T21:01:43.016Z,0
2023-04-30T21:06:59.071Z,0
2023-04-30T21:12:15.315Z,0
2023-04-30T21:17:32.675Z,0
2023-04-30T21:22:48.171Z,0
2023-04-30T21:28:06.252Z,0
2023-04-30T21:33:22.868Z,0
2023-04-30T21:38:38.881Z,0
2023-04-30T21:43:56.513Z,0
2023-04-30T21:49:13.884Z,0
2023-04-30T21:54:29.844Z,0
2023-04-30T21:59:47.320Z,0
2023-04-30T22:05:03.418Z,0
2023-04-30T22:10:19.050Z,0
2023-04-30T22:15:49.003Z,0
2023-04-30T22:20:51.766Z,0
2023-04-30T22:26:10.071Z,0
2023-04-30T22:31:27.750Z,0
2023-04-30T22:36:42.963Z,0
2023-04-30T22:42:00.560Z,0
2023-04-30T22:47:18.547Z,0
2023-04-30T22:52:34.732Z,0
2023-04-30T22:57:54.164Z,0
2023-04-30T23:03:10.981Z,0
2023-04-30T23:08:26.183Z,0
2023-04-30T23:13:48.405Z,0
2023-04-30T23:19:05.764Z,0
2023-04-30T23:24:22.665Z,0
2023-04-30T23:29:39.621Z,0
